Robards, KY

7:53 AM CDT on September 03, 2015 (GMT -0500)
Wilson Station | | Change Station
CLOSE
Current Station
Personal Weather Station
Location: Henderson, KY
Elevation: 417 ft
Nearby Weather Stations

Elev 417 ft 37.79 °N, 87.66 °W | Updated 8 minutes ago

Clear
Clear
75.4 °F
Feels Like 76 °F
N
0.0
Wind Variable Wind from SE

Today
High -- | Low -- °F
--% Chance of Precip.
Yesterday
High -- | Low -- °F
Precip. -- in
6:21 AM 7:16 PM
Waning Gibbous, 70% visible
Pressure 30.03 in
Visibility 4.0 miles
Clouds Clear
Heat Index 76 °F
Dew Point 69 °F
Humidity 81%
Rainfall 0.00 in
Snow Depth Not available.
UV 1 out of 12
Pollen 10.40 out of 12
Air Quality Not available.
Flu Activity Not available.
METAR KEHR 031235Z AUTO 00000KT 4SM CLR 21/19 A3003 RMK AO1
Pressure 30.03 in
Visibility 4.0 miles
Clouds Clear
Heat Index 76 °F
Dew Point 69 °F
Humidity 81%
Rainfall 0.00 in
Snow Depth Not available.
UV 1 out of 12
Pollen 10.40 out of 12
Air Quality Not available.
Flu Activity Not available.
METAR KEHR 031235Z AUTO 00000KT 4SM CLR 21/19 A3003 RMK AO1

10-Day Weather Forecast

×

Almanac

Astronomy

Sep. 03, 2015 Rise Set
Actual Time
Civil Twilight
Nautical Twilight
Astronomical Twilight
Moon
Length of Visible Light
Length of Day
Tomorrow will be .
, % of the Moon is Illuminated

Today's Extremes

State Highs State Lows

Community

WunderPhotos

Upload Photos

1,851,946 photos uploaded!

WunderBlogs® & News

Nearby

Air Quality

  Air Quality AQ Index Pollutant
Not available.

Snow Depth

Station Depth Elevation

Earthquake Activity

City Distance Mag. Time & Date
Minimum magnitude displayed is 2.5.

Coastal Water Temperatures

Place Temperature

Stations

Nearby Weather Stations

Station Location Temp. Windchill Dew Point Humidity Wind Precip. Elev Updated Type